createdAt,value
2022-12-18T00:01:35.870Z,17.38
2022-12-18T00:06:35.652Z,15.98
2022-12-18T00:09:04.371Z,10.73
2022-12-18T00:11:32.831Z,14.38
2022-12-18T00:14:01.310Z,13.25
2022-12-18T00:16:31.067Z,17.83
2022-12-18T00:21:26.765Z,14.88
2022-12-18T00:23:54.763Z,18.40
2022-12-18T00:26:33.751Z,13.75
2022-12-18T00:29:14.891Z,15.65
2022-12-18T00:31:44.683Z,15.73
2022-12-18T00:34:13.804Z,14.60
2022-12-18T00:36:42.110Z,19.77
2022-12-18T00:39:11.754Z,18.27
2022-12-18T00:41:57.887Z,20.77
2022-12-18T00:44:26.390Z,14.38
2022-12-18T00:46:53.709Z,19.23
2022-12-18T00:49:21.683Z,18.80
2022-12-18T00:51:49.023Z,18.67
2022-12-18T00:54:17.181Z,20.73
2022-12-18T00:56:49.407Z,19.60
2022-12-18T00:59:18.664Z,13.93
2022-12-18T01:01:46.527Z,20.23
2022-12-18T01:04:15.003Z,16.70
2022-12-18T01:06:45.162Z,19.88
2022-12-18T01:09:12.552Z,18.25
2022-12-18T01:11:40.376Z,21.58
2022-12-18T01:14:07.785Z,18.90
2022-12-18T01:16:35.201Z,14.02
2022-12-18T01:19:05.664Z,21.27
2022-12-18T01:21:33.724Z,17.95
2022-12-18T01:24:05.382Z,15.02
2022-12-18T01:26:32.784Z,17.38
2022-12-18T01:29:00.393Z,20.88
2022-12-18T01:31:30.931Z,18.30
2022-12-18T01:34:01.016Z,21.33
2022-12-18T01:36:31.258Z,23.45
2022-12-18T01:39:02.060Z,20.40
2022-12-18T01:41:51.081Z,21.95
2022-12-18T01:44:49.372Z,19.17
2022-12-18T01:47:34.861Z,21.08
2022-12-18T01:50:08.429Z,20.70
2022-12-18T01:52:46.064Z,20.98
2022-12-18T01:55:16.117Z,23.33
2022-12-18T01:57:44.002Z,22.17
2022-12-18T02:00:16.986Z,22.83
2022-12-18T02:02:46.252Z,22.23
2022-12-18T02:05:18.941Z,22.27
2022-12-18T02:08:10.566Z,23.80
2022-12-18T02:10:48.567Z,22.40
2022-12-18T02:13:57.384Z,22.70
2022-12-18T02:16:36.848Z,22.30
2022-12-18T02:19:33.514Z,23.63
2022-12-18T02:22:42.943Z,21.83
2022-12-18T02:25:28.807Z,20.20
2022-12-18T02:28:01.460Z,23.05
2022-12-18T02:30:34.739Z,21.65
2022-12-18T02:33:05.050Z,22.17
2022-12-18T02:35:36.317Z,19.77
2022-12-18T02:38:05.390Z,22.50
2022-12-18T02:40:38.645Z,21.02
2022-12-18T02:46:30.205Z,18.50
2022-12-18T02:49:06.538Z,16.58
2022-12-18T02:51:46.110Z,20.10
2022-12-18T02:54:22.076Z,18.05
2022-12-18T02:56:56.798Z,19.42
2022-12-18T02:59:45.050Z,17.92
2022-12-18T03:02:16.176Z,20.83
2022-12-18T03:04:54.159Z,17.70
2022-12-18T03:07:28.811Z,20.27
2022-12-18T03:10:00.043Z,19.75
2022-12-18T03:12:35.670Z,12.43
2022-12-18T03:15:29.605Z,18.05
2022-12-18T03:18:14.582Z,15.15
2022-12-18T03:20:45.161Z,16.55
2022-12-18T03:23:26.321Z,20.88
2022-12-18T03:25:57.713Z,16.70
2022-12-18T03:28:31.520Z,21.15
2022-12-18T03:31:06.161Z,22.00
2022-12-18T03:33:41.214Z,22.52
2022-12-18T03:36:09.392Z,21.23
2022-12-18T03:38:36.882Z,22.15
2022-12-18T03:41:32.727Z,22.08
2022-12-18T03:44:24.955Z,21.92
2022-12-18T03:47:15.199Z,21.58
2022-12-18T03:49:54.934Z,22.13
2022-12-18T03:52:29.348Z,23.77
2022-12-18T03:55:00.558Z,21.10
2022-12-18T03:57:32.356Z,24.02
2022-12-18T04:00:06.046Z,23.88
2022-12-18T04:02:48.310Z,22.17
2022-12-18T04:05:25.655Z,21.80
2022-12-18T04:07:54.959Z,22.40
2022-12-18T04:12:51.917Z,22.17
2022-12-18T04:15:19.963Z,20.15
2022-12-18T04:17:51.113Z,24.45
2022-12-18T04:20:22.259Z,22.55
2022-12-18T04:22:49.593Z,23.98
2022-12-18T04:25:18.778Z,22.45
2022-12-18T04:28:05.426Z,23.75
2022-12-18T04:30:33.638Z,23.23
2022-12-18T04:33:01.030Z,24.15
2022-12-18T04:35:31.174Z,22.77
2022-12-18T04:37:58.543Z,23.13
2022-12-18T04:40:25.984Z,23.92
2022-12-18T04:42:53.511Z,24.35
2022-12-18T04:45:20.853Z,25.15
2022-12-18T04:47:48.133Z,22.80
2022-12-18T04:50:15.672Z,24.83
2022-12-18T04:52:43.006Z,23.48
2022-12-18T04:55:10.305Z,23.23
2022-12-18T04:57:37.685Z,23.85
2022-12-18T05:00:07.013Z,19.58
2022-12-18T05:02:34.429Z,24.70
2022-12-18T05:05:01.848Z,24.70
2022-12-18T05:07:29.108Z,25.92
2022-12-18T05:09:56.486Z,23.40
2022-12-18T05:12:24.815Z,25.80
2022-12-18T05:14:52.437Z,25.17
2022-12-18T05:17:19.733Z,25.38
2022-12-18T05:19:47.058Z,27.98
2022-12-18T05:22:14.486Z,25.08
2022-12-18T05:24:41.783Z,23.02
2022-12-18T05:27:09.067Z,25.10
2022-12-18T05:29:36.368Z,25.52
2022-12-18T05:32:03.803Z,27.65
2022-12-18T05:34:31.129Z,25.65
2022-12-18T05:36:58.441Z,28.30
2022-12-18T05:39:25.881Z,28.13
2022-12-18T05:41:53.152Z,30.45
2022-12-18T05:44:20.484Z,27.83
2022-12-18T05:46:47.851Z,27.45
2022-12-18T05:49:15.200Z,27.90
2022-12-18T05:51:42.520Z,26.95
2022-12-18T05:54:10.101Z,30.92
2022-12-18T05:56:37.598Z,29.55
2022-12-18T05:59:04.930Z,27.80
2022-12-18T06:01:32.304Z,26.35
2022-12-18T06:04:00.008Z,25.85
2022-12-18T06:06:28.735Z,27.50
2022-12-18T06:08:57.560Z,28.35
2022-12-18T06:11:27.475Z,29.43
2022-12-18T06:13:58.704Z,25.67
2022-12-18T06:16:28.138Z,27.27
2022-12-18T06:19:03.563Z,21.90
2022-12-18T06:21:31.993Z,29.40
2022-12-18T06:24:00.641Z,31.70
2022-12-18T06:26:28.683Z,30.55
2022-12-18T06:28:56.531Z,28.58
2022-12-18T06:31:24.209Z,31.20
2022-12-18T06:33:51.669Z,27.63
2022-12-18T06:36:19.289Z,27.52
2022-12-18T06:38:46.730Z,27.10
2022-12-18T06:41:19.998Z,27.98
2022-12-18T06:43:47.845Z,27.42
2022-12-18T06:46:15.293Z,26.23
2022-12-18T06:48:42.845Z,27.00
2022-12-18T06:51:10.116Z,29.10
2022-12-18T06:53:37.875Z,29.25
2022-12-18T06:56:10.409Z,28.45
2022-12-18T06:58:39.769Z,29.65
2022-12-18T07:01:09.575Z,29.07
2022-12-18T07:03:38.657Z,30.23
2022-12-18T07:06:07.062Z,26.95
2022-12-18T07:08:34.373Z,26.13
2022-12-18T07:11:04.795Z,26.38
2022-12-18T07:13:32.861Z,28.00
2022-12-18T07:16:16.007Z,27.45
2022-12-18T07:18:45.054Z,27.45
2022-12-18T07:21:16.463Z,25.17
2022-12-18T07:23:44.785Z,25.90
2022-12-18T07:26:13.629Z,25.73
2022-12-18T07:28:42.332Z,27.17
2022-12-18T07:31:16.047Z,24.38
2022-12-18T07:33:43.656Z,26.90
2022-12-18T07:36:11.703Z,27.65
2022-12-18T07:38:39.567Z,25.20
2022-12-18T07:41:15.072Z,25.35
2022-12-18T07:43:43.219Z,28.27
2022-12-18T07:46:13.450Z,23.23
2022-12-18T07:48:42.478Z,25.13
2022-12-18T07:53:39.281Z,24.20
2022-12-18T07:56:28.563Z,24.20
2022-12-18T07:58:57.086Z,27.85
2022-12-18T08:01:24.860Z,26.02
2022-12-18T08:03:52.708Z,30.75
2022-12-18T08:06:23.767Z,30.35
2022-12-18T08:08:55.805Z,27.92
2022-12-18T08:11:25.376Z,23.45
2022-12-18T08:13:53.385Z,25.50
2022-12-18T08:16:21.710Z,29.23
2022-12-18T08:18:49.729Z,19.02
2022-12-18T08:21:24.059Z,25.10
2022-12-18T08:23:56.378Z,26.48
2022-12-18T08:26:26.278Z,29.02
2022-12-18T08:31:22.743Z,21.30
2022-12-18T08:33:53.746Z,26.83
2022-12-18T08:36:23.149Z,25.55
2022-12-18T08:38:52.685Z,37.75
2022-12-18T08:41:20.507Z,25.15
2022-12-18T08:44:06.436Z,26.88
2022-12-18T08:46:37.320Z,29.85
2022-12-18T08:49:06.433Z,25.05
2022-12-18T08:51:34.538Z,36.70
2022-12-18T08:54:02.400Z,29.70
2022-12-18T08:56:31.044Z,38.10
2022-12-18T08:58:58.737Z,30.77
2022-12-18T09:01:27.708Z,28.67
2022-12-18T09:03:55.266Z,24.97
2022-12-18T09:06:25.805Z,25.73
2022-12-18T09:08:53.125Z,27.05
2022-12-18T09:11:25.875Z,27.25
2022-12-18T09:13:54.897Z,24.95
2022-12-18T09:16:28.789Z,27.27
2022-12-18T09:19:00.793Z,26.50
2022-12-18T09:21:35.969Z,28.17
2022-12-18T09:24:08.941Z,28.45
2022-12-18T09:26:38.073Z,26.48
2022-12-18T09:29:08.267Z,31.77
2022-12-18T09:31:36.230Z,31.02
2022-12-18T09:34:03.560Z,27.88
2022-12-18T09:36:33.724Z,28.13
2022-12-18T09:39:06.301Z,28.35
2022-12-18T09:41:55.779Z,26.73
2022-12-18T09:44:47.093Z,28.48
2022-12-18T09:47:14.442Z,27.10
2022-12-18T09:49:45.015Z,26.10
2022-12-18T09:52:34.471Z,27.88
2022-12-18T09:55:10.686Z,26.92
2022-12-18T09:57:46.244Z,27.13
2022-12-18T10:00:21.089Z,28.27
2022-12-18T10:02:50.042Z,29.08
2022-12-18T10:05:23.776Z,27.23
2022-12-18T10:07:56.339Z,29.67
2022-12-18T10:10:51.030Z,37.28
2022-12-18T10:13:22.687Z,23.50
2022-12-18T10:16:16.926Z,24.92
2022-12-18T10:19:11.575Z,28.17
2022-12-18T10:22:03.191Z,25.48
2022-12-18T10:24:36.487Z,25.15
2022-12-18T10:27:30.420Z,22.40
2022-12-18T10:29:58.776Z,23.55
2022-12-18T10:32:28.990Z,30.40
2022-12-18T10:35:00.842Z,24.10
2022-12-18T10:37:30.892Z,28.60
2022-12-18T10:40:19.931Z,23.92
2022-12-18T10:43:12.013Z,23.98
2022-12-18T10:48:19.362Z,23.13
2022-12-18T10:53:38.523Z,24.00
2022-12-18T10:56:07.808Z,24.60
2022-12-18T10:58:40.905Z,24.17
2022-12-18T11:01:11.711Z,24.13
2022-12-18T11:03:42.481Z,23.23
2022-12-18T11:06:18.998Z,25.60
2022-12-18T11:09:00.192Z,25.40
2022-12-18T11:11:28.189Z,25.80
2022-12-18T11:14:02.954Z,25.98
2022-12-18T11:16:57.898Z,24.63
2022-12-18T11:22:24.146Z,22.08
2022-12-18T11:28:01.553Z,23.33
2022-12-18T11:30:35.790Z,24.30
2022-12-18T11:33:23.184Z,23.23
2022-12-18T11:35:52.780Z,23.08
2022-12-18T11:38:40.353Z,21.77
2022-12-18T11:42:01.327Z,20.77
2022-12-18T11:44:42.093Z,22.30
2022-12-18T11:47:27.729Z,21.77
2022-12-18T11:50:00.517Z,22.65
2022-12-18T11:52:40.082Z,23.48
2022-12-18T11:55:30.028Z,21.98
2022-12-18T12:00:41.427Z,20.13
2022-12-18T12:03:08.881Z,20.52
2022-12-18T12:05:36.244Z,21.58
2022-12-18T12:08:54.093Z,22.50
2022-12-18T12:11:57.477Z,21.92
2022-12-18T12:14:24.703Z,20.90
2022-12-18T12:17:00.202Z,19.23
2022-12-18T12:19:35.778Z,19.75
2022-12-18T12:22:22.468Z,24.08
2022-12-18T12:25:02.884Z,22.88
2022-12-18T12:27:42.516Z,25.17
2022-12-18T12:30:21.627Z,24.48
2022-12-18T12:33:19.364Z,22.77
2022-12-18T12:36:15.947Z,22.10
2022-12-18T12:38:52.522Z,21.67
2022-12-18T12:41:47.063Z,22.17
2022-12-18T12:44:21.085Z,21.75
2022-12-18T12:46:50.350Z,20.50
2022-12-18T12:49:25.361Z,21.23
2022-12-18T12:52:13.494Z,20.08
2022-12-18T12:54:42.140Z,19.42
2022-12-18T12:57:13.341Z,18.95
2022-12-18T13:00:05.643Z,20.27
2022-12-18T13:02:51.459Z,19.00
2022-12-18T13:05:59.655Z,20.35
2022-12-18T13:08:33.329Z,18.27
2022-12-18T13:11:21.393Z,18.90
2022-12-18T13:13:54.019Z,19.10
2022-12-18T13:16:27.542Z,16.58
2022-12-18T13:19:00.072Z,17.15
2022-12-18T13:21:33.537Z,17.75
2022-12-18T13:24:36.235Z,16.60
2022-12-18T13:27:42.467Z,16.67
2022-12-18T13:30:34.569Z,18.80
2022-12-18T13:33:14.633Z,18.90
2022-12-18T13:35:54.485Z,17.58
2022-12-18T13:38:22.189Z,16.85
2022-12-18T13:40:49.529Z,17.27
2022-12-18T13:43:28.927Z,18.73
2022-12-18T13:46:07.762Z,16.75
2022-12-18T13:48:39.210Z,16.77
2022-12-18T13:51:11.216Z,18.02
2022-12-18T13:53:47.665Z,20.52
2022-12-18T13:56:23.813Z,20.48
2022-12-18T13:59:16.567Z,18.42
2022-12-18T14:01:49.581Z,20.75
2022-12-18T14:04:22.410Z,22.85
2022-12-18T14:06:53.659Z,24.88
2022-12-18T14:09:37.101Z,27.40
2022-12-18T14:12:25.386Z,30.77
2022-12-18T14:14:54.970Z,28.40
2022-12-18T14:17:24.416Z,24.30
2022-12-18T14:19:52.718Z,30.67
2022-12-18T14:22:30.832Z,30.67
2022-12-18T14:25:13.493Z,35.70
2022-12-18T14:27:46.553Z,38.22
2022-12-18T14:30:46.432Z,38.83
2022-12-18T14:33:16.334Z,37.10
2022-12-18T14:35:54.059Z,34.33
2022-12-18T14:38:22.301Z,30.75
2022-12-18T14:40:54.953Z,32.22
2022-12-18T14:43:23.150Z,35.88
2022-12-18T14:45:52.482Z,34.65
2022-12-18T14:48:23.400Z,34.75
2022-12-18T14:51:18.712Z,34.65
2022-12-18T14:53:56.168Z,35.92
2022-12-18T14:56:27.216Z,35.38
2022-12-18T14:59:03.365Z,39.03
2022-12-18T15:01:33.130Z,36.58
2022-12-18T15:04:02.510Z,36.20
2022-12-18T15:06:38.447Z,36.20
2022-12-18T15:09:22.869Z,39.88
2022-12-18T15:11:51.385Z,41.88
2022-12-18T15:14:37.890Z,39.22
2022-12-18T15:17:15.994Z,40.13
2022-12-18T15:19:45.818Z,41.58
2022-12-18T15:22:36.191Z,41.83
2022-12-18T15:25:23.450Z,41.78
2022-12-18T15:27:50.885Z,46.28
2022-12-18T15:30:21.113Z,49.13
2022-12-18T15:32:49.862Z,45.38
2022-12-18T15:35:23.508Z,43.33
2022-12-18T15:37:52.574Z,45.15
2022-12-18T15:40:22.625Z,45.70
2022-12-18T15:43:13.496Z,42.83
2022-12-18T15:45:40.989Z,41.25
2022-12-18T15:48:26.490Z,45.03
2022-12-18T15:50:57.796Z,45.72
2022-12-18T15:53:28.958Z,50.05
2022-12-18T15:56:14.808Z,55.15
2022-12-18T15:58:42.200Z,55.38
2022-12-18T16:01:11.431Z,53.88
2022-12-18T16:03:39.378Z,73.63
2022-12-18T16:06:07.292Z,76.28
2022-12-18T16:08:37.446Z,86.68
2022-12-18T16:11:07.107Z,78.55
2022-12-18T16:13:34.453Z,66.95
2022-12-18T16:16:02.169Z,60.03
2022-12-18T16:18:29.698Z,50.58
2022-12-18T16:20:57.001Z,51.28
2022-12-18T16:23:24.335Z,45.15
2022-12-18T16:25:52.630Z,66.70
2022-12-18T16:28:19.990Z,53.15
2022-12-18T16:30:47.326Z,41.83
2022-12-18T16:33:14.708Z,44.05
2022-12-18T16:35:42.017Z,45.58
2022-12-18T16:38:10.304Z,45.97
2022-12-18T16:40:58.876Z,51.97
2022-12-18T16:43:26.266Z,46.10
2022-12-18T16:45:53.566Z,51.47
2022-12-18T16:48:21.197Z,65.32
2022-12-18T16:50:48.472Z,49.00
2022-12-18T16:53:15.748Z,86.32
2022-12-18T16:55:43.076Z,85.82
2022-12-18T16:58:11.170Z,78.28
2022-12-18T17:00:39.191Z,72.03
2022-12-18T17:03:06.724Z,71.80
2022-12-18T17:05:35.222Z,73.00
2022-12-18T17:08:02.591Z,70.80
2022-12-18T17:10:29.916Z,65.03
2022-12-18T17:12:57.269Z,63.83
2022-12-18T17:15:24.530Z,64.93
2022-12-18T17:17:51.852Z,64.53
2022-12-18T17:20:19.199Z,54.72
2022-12-18T17:22:49.501Z,56.90
2022-12-18T17:25:17.298Z,60.80
2022-12-18T17:27:44.565Z,58.05
2022-12-18T17:30:12.291Z,62.22
2022-12-18T17:32:39.578Z,60.38
2022-12-18T17:35:07.650Z,59.00
2022-12-18T17:37:36.082Z,61.27
2022-12-18T17:40:03.861Z,62.55
2022-12-18T17:42:31.200Z,65.15
2022-12-18T17:44:58.459Z,62.08
2022-12-18T17:47:25.767Z,72.57
2022-12-18T17:49:53.168Z,61.65
2022-12-18T17:52:22.045Z,64.63
2022-12-18T17:54:49.429Z,71.30
2022-12-18T17:57:16.733Z,92.85
2022-12-18T17:59:44.114Z,72.93
2022-12-18T18:02:12.244Z,68.28
2022-12-18T18:04:39.745Z,66.28
2022-12-18T18:07:07.136Z,74.93
2022-12-18T18:09:34.560Z,80.05
2022-12-18T18:12:20.791Z,77.90
2022-12-18T18:14:48.164Z,72.38
2022-12-18T18:17:15.609Z,63.28
2022-12-18T18:19:44.163Z,60.60
2022-12-18T18:22:15.276Z,57.75
2022-12-18T18:24:43.737Z,59.35
2022-12-18T18:27:11.006Z,60.20
2022-12-18T18:29:38.601Z,55.75
2022-12-18T18:32:06.061Z,56.15
2022-12-18T18:34:33.601Z,55.15
2022-12-18T18:37:01.716Z,55.35
2022-12-18T18:39:29.993Z,57.05
2022-12-18T18:41:57.539Z,64.20
2022-12-18T18:44:26.100Z,64.93
2022-12-18T18:46:58.289Z,65.27
2022-12-18T18:49:27.874Z,93.68
2022-12-18T18:51:57.331Z,104.22
2022-12-18T18:54:26.117Z,73.37
2022-12-18T18:57:19.456Z,77.35
2022-12-18T18:59:41.353Z,74.25
2022-12-18T19:02:16.652Z,79.32
2022-12-18T19:04:46.056Z,71.18
2022-12-18T19:07:18.515Z,66.82
2022-12-18T19:10:03.950Z,67.15
2022-12-18T19:12:52.593Z,64.07
2022-12-18T19:15:22.215Z,56.50
2022-12-18T19:17:49.542Z,59.17
2022-12-18T19:20:17.579Z,60.00
2022-12-18T19:22:49.013Z,56.90
2022-12-18T19:25:29.942Z,123.70
2022-12-18T19:28:07.496Z,102.88
2022-12-18T19:30:40.922Z,75.65
2022-12-18T19:33:34.546Z,57.42
2022-12-18T19:35:55.853Z,59.65
2022-12-18T19:38:23.364Z,56.53
2022-12-18T19:40:50.812Z,64.88
2022-12-18T19:43:18.498Z,62.55
2022-12-18T19:45:45.865Z,58.92
2022-12-18T19:48:14.714Z,54.83
2022-12-18T19:50:42.422Z,56.92
2022-12-18T19:53:09.810Z,54.72
2022-12-18T19:55:42.325Z,55.15
2022-12-18T19:58:12.107Z,54.40
2022-12-18T20:00:39.615Z,57.83
2022-12-18T20:03:17.662Z,53.35
2022-12-18T20:05:50.727Z,53.38
2022-12-18T20:08:18.026Z,53.67
2022-12-18T20:10:49.019Z,51.72
2022-12-18T20:13:16.599Z,51.70
2022-12-18T20:15:45.513Z,46.53
2022-12-18T20:18:13.957Z,41.10
2022-12-18T20:20:45.052Z,52.50
2022-12-18T20:23:13.509Z,56.20
2022-12-18T20:25:40.863Z,90.38
2022-12-18T20:28:08.459Z,48.17
2022-12-18T20:30:35.841Z,48.65
2022-12-18T20:33:03.246Z,45.22
2022-12-18T20:35:32.391Z,40.88
2022-12-18T20:37:59.871Z,41.03
2022-12-18T20:40:28.553Z,61.22
2022-12-18T20:42:55.928Z,58.08
2022-12-18T20:45:23.654Z,46.10
2022-12-18T20:47:54.319Z,44.80
2022-12-18T20:50:21.636Z,46.20
2022-12-18T20:52:48.972Z,40.55
2022-12-18T20:55:16.460Z,38.33
2022-12-18T20:57:43.884Z,37.63
2022-12-18T21:00:12.368Z,36.97
2022-12-18T21:02:42.296Z,38.67
2022-12-18T21:05:09.662Z,42.33
2022-12-18T21:07:37.069Z,41.90
2022-12-18T21:10:05.663Z,48.63
2022-12-18T21:12:44.047Z,86.43
2022-12-18T21:15:28.547Z,52.63
2022-12-18T21:17:56.268Z,41.35
2022-12-18T21:20:25.990Z,37.70
2022-12-18T21:22:54.058Z,38.50
2022-12-18T21:25:24.631Z,37.75
2022-12-18T21:27:51.905Z,40.30
2022-12-18T21:30:19.457Z,41.38
2022-12-18T21:32:47.633Z,45.55
2022-12-18T21:35:15.518Z,38.83
2022-12-18T21:37:44.608Z,49.03
2022-12-18T21:40:13.370Z,46.28
2022-12-18T21:42:59.297Z,51.33
2022-12-18T21:45:26.833Z,54.22
2022-12-18T21:47:54.452Z,53.53
2022-12-18T21:50:21.733Z,52.60
2022-12-18T21:52:49.057Z,50.78
2022-12-18T21:55:16.512Z,45.75
2022-12-18T21:57:43.827Z,43.10
2022-12-18T22:00:18.299Z,40.55
2022-12-18T22:02:48.388Z,42.05
2022-12-18T22:05:30.741Z,41.63
2022-12-18T22:07:58.074Z,42.17
2022-12-18T22:10:25.471Z,42.60
2022-12-18T22:12:55.164Z,41.30
2022-12-18T22:15:22.545Z,43.70
2022-12-18T22:17:53.450Z,41.78
2022-12-18T22:20:29.843Z,39.53
2022-12-18T22:22:57.830Z,41.75
2022-12-18T22:25:25.174Z,44.38
2022-12-18T22:28:10.898Z,44.85
2022-12-18T22:30:38.492Z,41.70
2022-12-18T22:33:05.833Z,34.15
2022-12-18T22:35:33.282Z,34.60
2022-12-18T22:38:01.835Z,37.83
2022-12-18T22:40:29.597Z,38.70
2022-12-18T22:43:02.836Z,43.60
2022-12-18T22:45:30.192Z,41.78
2022-12-18T22:47:57.605Z,38.55
2022-12-18T22:50:24.928Z,37.80
2022-12-18T22:52:52.278Z,39.72
2022-12-18T22:55:19.943Z,38.72
2022-12-18T22:57:48.480Z,36.63
2022-12-18T23:00:24.330Z,41.25
2022-12-18T23:03:00.188Z,39.63
2022-12-18T23:05:29.982Z,48.70
2022-12-18T23:07:57.648Z,37.85
2022-12-18T23:10:25.019Z,47.30
2022-12-18T23:12:52.347Z,60.97
2022-12-18T23:15:19.871Z,128.93
2022-12-18T23:17:59.548Z,74.20
2022-12-18T23:20:27.723Z,63.38
2022-12-18T23:22:55.050Z,64.57
2022-12-18T23:25:22.401Z,65.90
2022-12-18T23:27:49.765Z,67.40
2022-12-18T23:30:17.125Z,65.60
2022-12-18T23:32:44.683Z,61.95
2022-12-18T23:35:15.586Z,64.70
2022-12-18T23:38:00.496Z,69.45
2022-12-18T23:40:29.842Z,65.80
2022-12-18T23:42:58.581Z,56.60
2022-12-18T23:45:25.955Z,45.67
2022-12-18T23:47:53.209Z,45.70
2022-12-18T23:50:22.095Z,39.10
2022-12-18T23:52:56.507Z,35.33
2022-12-18T23:55:28.250Z,52.95
2022-12-18T23:57:55.730Z,54.55
